createdAt,value
2022-08-16T00:00:04.116Z,14.62
2022-08-16T00:00:58.080Z,14.67
2022-08-16T00:01:59.894Z,14.71
2022-08-16T00:02:58.545Z,14.75
2022-08-16T00:03:59.966Z,14.79
2022-08-16T00:04:59.615Z,14.87
2022-08-16T00:05:58.012Z,14.93
2022-08-16T00:06:58.063Z,14.98
2022-08-16T00:07:59.144Z,15.04
2022-08-16T00:08:57.922Z,15.08
2022-08-16T00:09:59.021Z,15.12
2022-08-16T00:10:57.928Z,15.18
2022-08-16T00:11:58.768Z,15.23
2022-08-16T00:12:58.862Z,15.27
2022-08-16T00:13:59.081Z,15.29
2022-08-16T00:15:00.017Z,15.30
2022-08-16T00:15:57.939Z,15.33
2022-08-16T00:17:12.284Z,15.36
2022-08-16T00:17:58.888Z,15.38
2022-08-16T00:18:58.338Z,15.41
2022-08-16T00:19:57.957Z,15.44
2022-08-16T00:20:58.472Z,15.46
2022-08-16T00:22:03.089Z,15.49
2022-08-16T00:22:58.106Z,15.52
2022-08-16T00:23:58.449Z,15.54
2022-08-16T00:24:57.856Z,15.58
2022-08-16T00:26:34.857Z,15.62
2022-08-16T00:26:58.114Z,15.67
2022-08-16T00:27:58.118Z,15.73
2022-08-16T00:28:57.981Z,15.81
2022-08-16T00:30:08.512Z,15.91
2022-08-16T00:30:59.141Z,15.99
2022-08-16T00:32:01.679Z,16.07
2022-08-16T00:33:00.417Z,16.13
2022-08-16T00:33:57.919Z,16.18
2022-08-16T00:34:57.973Z,16.24
2022-08-16T00:35:57.989Z,16.27
2022-08-16T00:37:59.413Z,16.29
2022-08-16T00:38:57.898Z,16.33
2022-08-16T00:39:58.465Z,16.41
2022-08-16T00:40:58.166Z,16.45
2022-08-16T00:42:58.282Z,16.41
2022-08-16T00:43:59.091Z,16.36
2022-08-16T00:45:08.453Z,16.32
2022-08-16T00:46:34.059Z,16.27
2022-08-16T00:47:06.445Z,16.22
2022-08-16T00:47:57.945Z,16.18
2022-08-16T00:49:58.011Z,16.23
2022-08-16T00:50:58.000Z,16.32
2022-08-16T00:51:57.868Z,16.42
2022-08-16T00:52:58.224Z,16.45
2022-08-16T00:53:58.293Z,16.51
2022-08-16T00:54:58.269Z,16.56
2022-08-16T00:56:01.249Z,16.61
2022-08-16T00:57:00.357Z,16.66
2022-08-16T00:58:00.776Z,16.69
2022-08-16T00:59:01.255Z,16.70
2022-08-16T00:59:59.406Z,16.69
2022-08-16T01:00:58.890Z,16.65
2022-08-16T01:01:58.145Z,16.59
2022-08-16T01:02:59.821Z,16.50
2022-08-16T01:03:57.908Z,16.45
2022-08-16T01:05:10.608Z,16.43
2022-08-16T01:07:01.902Z,16.42
2022-08-16T01:07:59.655Z,16.44
2022-08-16T01:08:59.881Z,16.49
2022-08-16T01:09:57.936Z,16.56
2022-08-16T01:10:59.835Z,16.62
2022-08-16T01:11:57.877Z,16.68
2022-08-16T01:13:00.264Z,16.71
2022-08-16T01:14:05.619Z,16.74
2022-08-16T01:15:00.756Z,16.75
2022-08-16T01:16:03.000Z,16.78
2022-08-16T01:18:00.092Z,16.82
2022-08-16T01:19:02.679Z,16.84
2022-08-16T01:20:00.607Z,16.83
2022-08-16T01:21:09.041Z,16.79
2022-08-16T01:22:49.581Z,16.74
2022-08-16T01:23:08.691Z,16.71
2022-08-16T01:24:51.397Z,16.70
2022-08-16T01:25:04.512Z,16.72
2022-08-16T01:26:00.248Z,16.75
2022-08-16T01:27:06.336Z,16.77
2022-08-16T01:28:01.691Z,16.80
2022-08-16T01:29:01.778Z,16.86
2022-08-16T01:30:19.745Z,16.94
2022-08-16T01:30:59.748Z,17.01
2022-08-16T01:31:57.873Z,17.07
2022-08-16T01:33:14.385Z,17.14
2022-08-16T01:33:57.848Z,17.19
2022-08-16T01:34:58.336Z,17.25
2022-08-16T01:36:02.557Z,17.31
2022-08-16T01:37:03.696Z,17.37
2022-08-16T01:38:08.017Z,17.40
2022-08-16T01:38:57.816Z,17.41
2022-08-16T01:39:59.109Z,17.39
2022-08-16T01:41:03.414Z,17.36
2022-08-16T01:41:57.866Z,17.24
2022-08-16T01:42:58.444Z,17.11
2022-08-16T01:44:00.732Z,17.05
2022-08-16T01:44:57.829Z,17.02
2022-08-16T01:46:00.011Z,17.01
2022-08-16T01:46:58.192Z,16.97
2022-08-16T01:47:57.802Z,16.93
2022-08-16T01:49:03.473Z,16.89
2022-08-16T01:50:42.742Z,16.86
2022-08-16T01:52:01.765Z,16.87
2022-08-16T01:52:58.202Z,16.89
2022-08-16T01:53:58.203Z,16.93
2022-08-16T01:54:59.400Z,16.96
2022-08-16T01:55:57.944Z,17.00
2022-08-16T01:56:58.131Z,17.02
2022-08-16T01:59:00.085Z,17.00
2022-08-16T01:59:57.899Z,17.01
2022-08-16T02:01:59.987Z,16.97
2022-08-16T02:02:58.185Z,16.92
2022-08-16T02:04:11.241Z,16.88
2022-08-16T02:05:00.416Z,16.85
2022-08-16T02:06:57.797Z,16.87
2022-08-16T02:07:58.564Z,16.91
2022-08-16T02:08:57.897Z,16.97
2022-08-16T02:09:59.667Z,17.03
2022-08-16T02:10:58.164Z,17.06
2022-08-16T02:12:00.408Z,17.10
2022-08-16T02:12:59.930Z,17.15
2022-08-16T02:13:57.938Z,17.21
2022-08-16T02:14:59.507Z,17.27
2022-08-16T02:15:57.924Z,17.34
2022-08-16T02:16:59.377Z,17.40
2022-08-16T02:18:01.087Z,17.46
2022-08-16T02:18:57.859Z,17.51
2022-08-16T02:20:00.616Z,17.55
2022-08-16T02:20:57.913Z,17.59
2022-08-16T02:22:09.186Z,17.61
2022-08-16T02:22:58.662Z,17.64
2022-08-16T02:23:58.217Z,17.67
2022-08-16T02:24:57.825Z,17.69
2022-08-16T02:25:59.446Z,17.71
2022-08-16T02:26:58.092Z,17.73
2022-08-16T02:27:59.405Z,17.75
2022-08-16T02:28:57.917Z,17.77
2022-08-16T02:30:05.644Z,17.79
2022-08-16T02:31:00.406Z,17.80
2022-08-16T02:32:58.364Z,17.75
2022-08-16T02:33:58.266Z,17.68
2022-08-16T02:34:58.070Z,17.62
2022-08-16T02:35:59.979Z,17.57
2022-08-16T02:36:57.793Z,17.54
2022-08-16T02:38:01.773Z,17.52
2022-08-16T02:38:57.827Z,17.51
2022-08-16T02:39:57.860Z,17.50
2022-08-16T02:41:57.873Z,17.51
2022-08-16T02:42:57.935Z,17.49
2022-08-16T02:43:58.613Z,17.43
2022-08-16T02:44:57.892Z,17.38
2022-08-16T02:45:58.454Z,17.34
2022-08-16T02:46:57.873Z,17.31
2022-08-16T02:48:01.148Z,17.28
2022-08-16T02:49:00.350Z,17.25
2022-08-16T02:50:52.165Z,17.24
2022-08-16T02:51:05.912Z,17.22
2022-08-16T02:51:57.828Z,17.19
2022-08-16T02:52:57.919Z,17.17
2022-08-16T02:53:57.835Z,17.16
2022-08-16T02:54:58.033Z,17.13
2022-08-16T02:55:58.149Z,17.10
2022-08-16T02:56:57.870Z,17.06
2022-08-16T02:57:57.802Z,17.05
2022-08-16T02:58:58.040Z,17.06
2022-08-16T02:59:58.583Z,17.08
2022-08-16T03:00:57.933Z,17.10
2022-08-16T03:01:57.844Z,17.11
2022-08-16T03:02:58.205Z,17.14
2022-08-16T03:04:39.845Z,17.16
2022-08-16T03:04:58.397Z,17.19
2022-08-16T03:05:57.809Z,17.22
2022-08-16T03:06:58.107Z,17.25
2022-08-16T03:07:57.963Z,17.29
2022-08-16T03:08:58.151Z,17.31
2022-08-16T03:10:00.290Z,17.32
2022-08-16T03:10:59.073Z,17.33
2022-08-16T03:11:57.854Z,17.34
2022-08-16T03:12:58.730Z,17.35
2022-08-16T03:13:58.229Z,17.36
2022-08-16T03:14:57.784Z,17.37
2022-08-16T03:16:59.446Z,17.36
2022-08-16T03:17:58.224Z,17.34
2022-08-16T03:18:58.078Z,17.33
2022-08-16T03:19:59.792Z,17.34
2022-08-16T03:20:59.838Z,17.33
2022-08-16T03:22:57.906Z,17.34
2022-08-16T03:23:57.834Z,17.35
2022-08-16T03:25:00.806Z,17.37
2022-08-16T03:25:57.783Z,17.35
2022-08-16T03:27:00.349Z,17.33
2022-08-16T03:27:57.809Z,17.27
2022-08-16T03:28:57.805Z,17.20
2022-08-16T03:29:57.816Z,17.12
2022-08-16T03:30:57.928Z,17.03
2022-08-16T03:31:59.297Z,16.95
2022-08-16T03:32:58.050Z,16.91
2022-08-16T03:33:57.937Z,16.85
2022-08-16T03:34:57.769Z,16.80
2022-08-16T03:36:30.284Z,16.76
2022-08-16T03:36:58.913Z,16.75
2022-08-16T03:38:58.073Z,16.78
2022-08-16T03:40:03.117Z,16.81
2022-08-16T03:43:02.159Z,16.80
2022-08-16T03:43:57.948Z,16.81
2022-08-16T03:45:03.967Z,16.82
2022-08-16T03:45:59.179Z,16.83
2022-08-16T03:46:58.250Z,16.80
2022-08-16T03:47:58.243Z,16.79
2022-08-16T03:48:57.794Z,16.80
2022-08-16T03:50:59.525Z,16.78
2022-08-16T03:54:01.285Z,16.79
2022-08-16T03:54:59.572Z,16.78
2022-08-16T03:55:58.181Z,16.77
2022-08-16T03:56:58.599Z,16.78
2022-08-16T03:58:58.146Z,16.76
2022-08-16T03:59:57.916Z,16.73
2022-08-16T04:00:59.470Z,16.70
2022-08-16T04:01:58.904Z,16.65
2022-08-16T04:03:02.562Z,16.61
2022-08-16T04:03:57.919Z,16.55
2022-08-16T04:04:57.732Z,16.50
2022-08-16T04:05:58.120Z,16.46
2022-08-16T04:06:57.769Z,16.43
2022-08-16T04:07:57.770Z,16.40
2022-08-16T04:08:57.756Z,16.39
2022-08-16T04:10:58.179Z,16.41
2022-08-16T04:11:58.019Z,16.42
2022-08-16T04:13:04.533Z,16.41
2022-08-16T04:14:58.252Z,16.42
2022-08-16T04:15:59.489Z,16.43
2022-08-16T04:16:57.804Z,16.44
2022-08-16T04:19:02.569Z,16.45
2022-08-16T04:19:59.787Z,16.43
2022-08-16T04:21:00.116Z,16.41
2022-08-16T04:21:58.065Z,16.37
2022-08-16T04:22:58.415Z,16.35
2022-08-16T04:23:58.000Z,16.33
2022-08-16T04:24:59.481Z,16.32
2022-08-16T04:25:58.262Z,16.29
2022-08-16T04:26:57.720Z,16.28
2022-08-16T04:27:58.313Z,16.26
2022-08-16T04:29:16.831Z,16.25
2022-08-16T04:30:03.224Z,16.22
2022-08-16T04:30:57.920Z,16.20
2022-08-16T04:31:58.362Z,16.17
2022-08-16T04:32:57.816Z,16.14
2022-08-16T04:33:59.515Z,16.11
2022-08-16T04:34:57.773Z,16.08
2022-08-16T04:35:58.823Z,16.06
2022-08-16T04:37:01.904Z,16.03
2022-08-16T04:37:57.836Z,16.00
2022-08-16T04:38:57.837Z,15.97
2022-08-16T04:39:57.801Z,15.95
2022-08-16T04:40:58.241Z,15.94
2022-08-16T04:41:57.790Z,15.92
2022-08-16T04:43:58.643Z,15.90
2022-08-16T04:44:58.623Z,15.89
2022-08-16T04:46:00.893Z,15.87
2022-08-16T04:47:02.613Z,15.84
2022-08-16T04:47:58.045Z,15.81
2022-08-16T04:48:57.779Z,15.78
2022-08-16T04:49:57.745Z,15.76
2022-08-16T04:50:58.346Z,15.75
2022-08-16T04:51:58.236Z,15.72
2022-08-16T04:52:58.041Z,15.68
2022-08-16T04:53:58.055Z,15.63
2022-08-16T04:54:57.721Z,15.57
2022-08-16T04:55:57.737Z,15.50
2022-08-16T04:56:57.699Z,15.45
2022-08-16T04:57:58.700Z,15.40
2022-08-16T04:58:58.010Z,15.35
2022-08-16T04:59:58.034Z,15.31
2022-08-16T05:00:58.001Z,15.27
2022-08-16T05:01:59.446Z,15.23
2022-08-16T05:02:58.933Z,15.19
2022-08-16T05:04:00.248Z,15.15
2022-08-16T05:04:57.837Z,15.10
2022-08-16T05:06:05.294Z,15.05
2022-08-16T05:06:57.925Z,15.01
2022-08-16T05:08:00.046Z,14.95
2022-08-16T05:08:58.352Z,14.90
2022-08-16T05:09:57.738Z,14.86
2022-08-16T05:11:00.306Z,14.79
2022-08-16T05:11:57.873Z,14.75
2022-08-16T05:12:58.680Z,14.70
2022-08-16T05:14:06.813Z,14.67
2022-08-16T05:15:02.579Z,14.63
2022-08-16T05:15:57.700Z,14.61
2022-08-16T05:16:57.717Z,14.57
2022-08-16T05:17:58.927Z,14.53
2022-08-16T05:19:00.436Z,14.49
2022-08-16T05:19:58.481Z,14.46
2022-08-16T05:21:09.371Z,14.43
2022-08-16T05:21:57.687Z,14.41
2022-08-16T05:22:57.709Z,14.38
2022-08-16T05:24:00.313Z,14.35
2022-08-16T05:24:57.957Z,14.32
2022-08-16T05:25:59.822Z,14.29
2022-08-16T05:26:57.706Z,14.25
2022-08-16T05:27:59.412Z,14.22
2022-08-16T05:28:58.830Z,14.17
2022-08-16T05:30:01.987Z,14.13
2022-08-16T05:30:57.714Z,14.10
2022-08-16T05:31:57.721Z,14.06
2022-08-16T05:32:57.766Z,14.02
2022-08-16T05:33:58.890Z,13.98
2022-08-16T05:34:57.790Z,13.93
2022-08-16T05:35:58.091Z,13.88
2022-08-16T05:36:58.717Z,13.83
2022-08-16T05:37:57.991Z,13.77
2022-08-16T05:38:57.719Z,13.72
2022-08-16T05:39:59.325Z,13.66
2022-08-16T05:41:01.506Z,13.61
2022-08-16T05:41:57.819Z,13.55
2022-08-16T05:42:57.774Z,13.49
2022-08-16T05:44:05.346Z,13.45
2022-08-16T05:44:57.722Z,13.39
2022-08-16T05:46:00.003Z,13.33
2022-08-16T05:47:00.976Z,13.26
2022-08-16T05:47:59.531Z,13.19
2022-08-16T05:49:03.717Z,13.12
2022-08-16T05:49:57.694Z,13.04
2022-08-16T05:50:57.766Z,12.98
2022-08-16T05:51:59.972Z,12.92
2022-08-16T05:52:57.685Z,12.86
2022-08-16T05:53:57.700Z,12.80
2022-08-16T05:55:00.885Z,12.75
2022-08-16T05:55:57.762Z,12.71
2022-08-16T05:56:59.981Z,12.66
2022-08-16T05:57:57.725Z,12.61
2022-08-16T05:58:57.721Z,12.55
2022-08-16T05:59:59.764Z,12.51
2022-08-16T06:00:57.918Z,12.46
2022-08-16T06:01:57.919Z,12.41
2022-08-16T06:02:57.939Z,12.36
2022-08-16T06:03:57.682Z,12.31
2022-08-16T06:04:57.704Z,12.26
2022-08-16T06:06:00.759Z,12.20
2022-08-16T06:06:58.228Z,12.14
2022-08-16T06:07:59.011Z,12.09
2022-08-16T06:08:57.762Z,12.02
2022-08-16T06:09:59.638Z,11.97
2022-08-16T06:11:02.641Z,11.92
2022-08-16T06:11:57.730Z,11.85
2022-08-16T06:12:57.790Z,11.80
2022-08-16T06:13:57.999Z,11.74
2022-08-16T06:15:04.170Z,11.69
2022-08-16T06:15:57.844Z,11.64
2022-08-16T06:16:57.798Z,11.61
2022-08-16T06:17:59.127Z,11.56
2022-08-16T06:18:57.661Z,11.54
2022-08-16T06:19:57.981Z,11.52
2022-08-16T06:20:57.799Z,11.50
2022-08-16T06:21:57.731Z,11.48
2022-08-16T06:23:03.971Z,11.46
2022-08-16T06:23:57.856Z,11.44
2022-08-16T06:24:57.748Z,11.41
2022-08-16T06:25:57.687Z,11.39
2022-08-16T06:26:58.474Z,11.36
2022-08-16T06:27:58.363Z,11.34
2022-08-16T06:28:57.718Z,11.32
2022-08-16T06:29:57.802Z,11.30
2022-08-16T06:30:57.957Z,11.26
2022-08-16T06:31:57.700Z,11.20
2022-08-16T06:32:57.698Z,11.15
2022-08-16T06:33:57.800Z,11.08
2022-08-16T06:35:03.063Z,11.02
2022-08-16T06:35:59.761Z,10.95
2022-08-16T06:37:00.186Z,10.91
2022-08-16T06:37:57.926Z,10.88
2022-08-16T06:38:59.316Z,10.86
2022-08-16T06:41:58.450Z,10.85
2022-08-16T06:42:57.816Z,10.83
2022-08-16T06:43:57.714Z,10.81
2022-08-16T06:44:57.688Z,10.80
2022-08-16T06:45:57.653Z,10.79
2022-08-16T06:47:57.738Z,10.78
2022-08-16T06:48:57.707Z,10.75
2022-08-16T06:49:57.652Z,10.70
2022-08-16T06:50:58.394Z,10.67
2022-08-16T06:52:02.709Z,10.64
2022-08-16T06:53:01.037Z,10.62
2022-08-16T06:53:57.897Z,10.60
2022-08-16T06:54:57.671Z,10.59
2022-08-16T06:55:59.292Z,10.57
2022-08-16T06:56:57.646Z,10.54
2022-08-16T06:57:57.982Z,10.52
2022-08-16T06:58:58.355Z,10.50
2022-08-16T06:59:58.265Z,10.47
2022-08-16T07:00:59.587Z,10.44
2022-08-16T07:01:58.469Z,10.42
2022-08-16T07:02:58.692Z,10.40
2022-08-16T07:03:57.662Z,10.39
2022-08-16T07:04:57.699Z,10.37
2022-08-16T07:05:58.482Z,10.35
2022-08-16T07:06:58.154Z,10.33
2022-08-16T07:07:58.179Z,10.31
2022-08-16T07:08:58.263Z,10.29
2022-08-16T07:09:58.035Z,10.27
2022-08-16T07:10:58.936Z,10.25
2022-08-16T07:12:03.727Z,10.22
2022-08-16T07:13:04.076Z,10.19
2022-08-16T07:14:00.483Z,10.16
2022-08-16T07:15:00.759Z,10.14
2022-08-16T07:15:59.674Z,10.11
2022-08-16T07:16:59.103Z,10.08
2022-08-16T07:17:57.708Z,10.04
2022-08-16T07:19:01.956Z,10.00
2022-08-16T07:20:04.036Z,9.96
2022-08-16T07:21:01.830Z,9.93
2022-08-16T07:22:00.034Z,9.90
2022-08-16T07:22:59.089Z,9.88
2022-08-16T07:23:57.895Z,9.85
2022-08-16T07:24:57.795Z,9.82
2022-08-16T07:25:57.744Z,9.81
2022-08-16T07:27:57.729Z,9.82
2022-08-16T07:29:57.638Z,9.83
2022-08-16T07:33:58.202Z,9.82
2022-08-16T07:34:57.757Z,9.81
2022-08-16T07:36:58.916Z,9.80
2022-08-16T07:38:57.651Z,9.78
2022-08-16T07:41:01.249Z,9.76
2022-08-16T07:41:57.666Z,9.74
2022-08-16T07:42:57.674Z,9.71
2022-08-16T07:43:57.798Z,9.67
2022-08-16T07:44:58.216Z,9.61
2022-08-16T07:46:01.589Z,9.56
2022-08-16T07:46:57.820Z,9.50
2022-08-16T07:47:57.639Z,9.46
2022-08-16T07:49:02.425Z,9.42
2022-08-16T07:49:58.382Z,9.38
2022-08-16T07:51:00.214Z,9.33
2022-08-16T07:51:57.696Z,9.30
2022-08-16T07:52:58.249Z,9.27
2022-08-16T07:54:02.477Z,9.22
2022-08-16T07:54:58.144Z,9.18
2022-08-16T07:55:58.480Z,9.11
2022-08-16T07:56:57.626Z,9.02
2022-08-16T07:58:00.721Z,8.96
2022-08-16T07:58:57.935Z,8.92
2022-08-16T07:59:57.685Z,8.89
2022-08-16T08:00:58.285Z,8.87
2022-08-16T08:01:57.854Z,8.86
2022-08-16T08:02:57.718Z,8.84
2022-08-16T08:03:58.658Z,8.82
2022-08-16T08:04:57.849Z,8.78
2022-08-16T08:05:57.612Z,8.75
2022-08-16T08:06:57.819Z,8.70
2022-08-16T08:07:58.280Z,8.67
2022-08-16T08:08:59.304Z,8.64
2022-08-16T08:09:59.454Z,8.61
2022-08-16T08:10:57.768Z,8.60
2022-08-16T08:11:59.787Z,8.59
2022-08-16T08:12:58.425Z,8.58
2022-08-16T08:14:57.776Z,8.57
2022-08-16T08:15:57.771Z,8.55
2022-08-16T08:18:49.922Z,8.54
2022-08-16T08:19:57.634Z,8.52
2022-08-16T08:20:59.135Z,8.49
2022-08-16T08:22:00.686Z,8.46
2022-08-16T08:23:01.007Z,8.42
2022-08-16T08:23:57.850Z,8.38
2022-08-16T08:24:58.965Z,8.35
2022-08-16T08:25:57.644Z,8.31
2022-08-16T08:26:59.373Z,8.27
2022-08-16T08:27:59.497Z,8.22
2022-08-16T08:29:00.784Z,8.18
2022-08-16T08:30:48.786Z,8.13
2022-08-16T08:31:00.802Z,8.09
2022-08-16T08:31:57.606Z,8.05
2022-08-16T08:33:00.785Z,8.03
2022-08-16T08:33:58.655Z,8.00
2022-08-16T08:35:03.221Z,7.98
2022-08-16T08:36:00.813Z,7.99
2022-08-16T08:43:00.937Z,8.00
2022-08-16T08:43:58.448Z,8.02
2022-08-16T08:44:57.935Z,8.01
2022-08-16T08:45:57.755Z,7.99
2022-08-16T08:47:00.525Z,7.94
2022-08-16T08:47:58.650Z,7.90
2022-08-16T08:48:59.275Z,7.88
2022-08-16T08:49:59.100Z,7.85
2022-08-16T08:50:57.606Z,7.83
2022-08-16T08:51:58.997Z,7.80
2022-08-16T08:52:57.712Z,7.77
2022-08-16T08:53:58.530Z,7.75
2022-08-16T08:55:59.202Z,7.76
2022-08-16T08:56:58.012Z,7.77
2022-08-16T08:57:58.195Z,7.76
2022-08-16T08:58:58.908Z,7.78
2022-08-16T08:59:58.244Z,7.79
2022-08-16T09:02:58.919Z,7.80
2022-08-16T09:05:57.642Z,7.82
2022-08-16T09:06:58.584Z,7.85
2022-08-16T09:08:01.614Z,7.86
2022-08-16T09:08:57.712Z,7.87
2022-08-16T09:10:06.341Z,7.86
2022-08-16T09:11:02.082Z,7.85
2022-08-16T09:13:57.605Z,7.87
2022-08-16T09:15:57.691Z,7.89
2022-08-16T09:17:03.869Z,7.91
2022-08-16T09:17:57.585Z,7.93
2022-08-16T09:19:00.857Z,7.95
2022-08-16T09:19:59.423Z,7.98
2022-08-16T09:20:59.034Z,8.00
2022-08-16T09:21:57.870Z,8.01
2022-08-16T09:22:58.268Z,8.02
2022-08-16T09:23:57.748Z,8.03
2022-08-16T09:25:09.629Z,8.06
2022-08-16T09:25:57.767Z,8.08
2022-08-16T09:26:57.693Z,8.09
2022-08-16T09:30:00.102Z,8.08
2022-08-16T09:30:57.577Z,8.07
2022-08-16T09:31:58.709Z,8.06
2022-08-16T09:34:58.416Z,8.05
2022-08-16T09:35:57.614Z,8.06
2022-08-16T09:36:58.159Z,8.07
2022-08-16T09:38:00.958Z,8.09
2022-08-16T09:38:59.976Z,8.10
2022-08-16T09:39:59.712Z,8.13
2022-08-16T09:40:58.767Z,8.16
2022-08-16T09:42:00.082Z,8.19
2022-08-16T09:42:59.346Z,8.21
2022-08-16T09:44:00.883Z,8.23
2022-08-16T09:45:10.643Z,8.24
2022-08-16T09:45:57.644Z,8.25
2022-08-16T09:47:58.442Z,8.27
2022-08-16T09:48:58.459Z,8.29
2022-08-16T09:49:57.591Z,8.31
2022-08-16T09:50:57.632Z,8.34
2022-08-16T09:51:57.734Z,8.37
2022-08-16T09:52:57.585Z,8.40
2022-08-16T09:53:58.252Z,8.42
2022-08-16T09:54:57.516Z,8.46
2022-08-16T09:55:58.082Z,8.49
2022-08-16T09:56:57.586Z,8.54
2022-08-16T09:57:59.032Z,8.58
2022-08-16T09:59:03.909Z,8.63
2022-08-16T09:59:57.571Z,8.68
2022-08-16T10:00:57.976Z,8.72
2022-08-16T10:01:57.711Z,8.77
2022-08-16T10:02:58.587Z,8.81
2022-08-16T10:04:01.603Z,8.86
2022-08-16T10:04:58.967Z,8.92
2022-08-16T10:05:57.637Z,8.96
2022-08-16T10:07:57.554Z,9.06
2022-08-16T10:09:05.440Z,9.10
2022-08-16T10:09:57.762Z,9.14
2022-08-16T10:11:06.906Z,9.18
2022-08-16T10:12:11.470Z,9.21
2022-08-16T10:13:06.850Z,9.25
2022-08-16T10:13:57.612Z,9.29
2022-08-16T10:14:57.516Z,9.33
2022-08-16T10:16:00.183Z,9.37
2022-08-16T10:17:02.866Z,9.40
2022-08-16T10:18:00.620Z,9.43
2022-08-16T10:19:02.280Z,9.46
2022-08-16T10:19:57.964Z,9.49
2022-08-16T10:20:59.455Z,9.51
2022-08-16T10:21:57.985Z,9.53
2022-08-16T10:23:03.599Z,9.56
2022-08-16T10:23:57.735Z,9.59
2022-08-16T10:24:59.786Z,9.61
2022-08-16T10:27:17.874Z,9.63
2022-08-16T10:27:19.135Z,9.66
2022-08-16T10:28:26.123Z,9.68
2022-08-16T10:28:57.614Z,9.71
2022-08-16T10:30:00.129Z,9.73
2022-08-16T10:30:59.089Z,9.75
2022-08-16T10:31:57.553Z,9.77
2022-08-16T10:32:58.048Z,9.78
2022-08-16T10:33:57.533Z,9.79
2022-08-16T10:34:57.675Z,9.80
2022-08-16T10:36:58.501Z,9.81
2022-08-16T10:39:57.984Z,9.82
2022-08-16T10:48:00.513Z,9.83
2022-08-16T10:48:57.593Z,9.84
2022-08-16T10:49:59.580Z,9.85
2022-08-16T10:50:59.277Z,9.86
2022-08-16T10:52:01.465Z,9.87
2022-08-16T10:52:59.382Z,9.88
2022-08-16T10:53:58.715Z,9.89
2022-08-16T10:54:59.213Z,9.90
2022-08-16T10:56:01.534Z,9.91
2022-08-16T10:56:58.576Z,9.92
2022-08-16T10:59:32.532Z,9.93
2022-08-16T11:03:01.202Z,9.92
2022-08-16T11:05:06.243Z,9.91
2022-08-16T11:07:08.374Z,9.90
2022-08-16T11:09:25.235Z,9.89
2022-08-16T11:10:19.768Z,9.90
2022-08-16T11:13:59.429Z,9.91
2022-08-16T11:16:01.252Z,9.92
2022-08-16T11:17:10.605Z,9.93
2022-08-16T11:18:47.876Z,9.95
2022-08-16T11:19:05.212Z,9.97
2022-08-16T11:20:36.711Z,9.99
2022-08-16T11:20:59.086Z,10.01
2022-08-16T11:22:22.963Z,10.02
2022-08-16T11:22:59.107Z,10.03
2022-08-16T11:23:59.127Z,10.04
2022-08-16T11:25:12.494Z,10.06
2022-08-16T11:26:07.329Z,10.07
2022-08-16T11:27:23.044Z,10.08
2022-08-16T11:29:14.268Z,10.09
2022-08-16T11:31:57.515Z,10.10
2022-08-16T11:33:57.514Z,10.11
2022-08-16T11:36:27.337Z,10.12
2022-08-16T11:38:46.870Z,10.13
2022-08-16T11:39:00.263Z,10.14
2022-08-16T11:39:59.986Z,10.15
2022-08-16T11:42:58.065Z,10.16
2022-08-16T11:46:27.884Z,10.17
2022-08-16T11:48:58.359Z,10.18
2022-08-16T11:51:57.526Z,10.19
2022-08-16T11:53:57.580Z,10.20
2022-08-16T11:55:58.153Z,10.21
2022-08-16T11:57:57.650Z,10.22
2022-08-16T11:59:57.519Z,10.21
2022-08-16T12:01:59.819Z,10.20
2022-08-16T12:02:57.442Z,10.19
2022-08-16T12:03:57.554Z,10.17
2022-08-16T12:04:58.046Z,10.16
2022-08-16T12:05:57.722Z,10.15
2022-08-16T12:06:57.578Z,10.14
2022-08-16T12:07:58.373Z,10.13
2022-08-16T12:09:00.950Z,10.11
2022-08-16T12:09:57.457Z,10.10
2022-08-16T12:10:59.386Z,10.09
2022-08-16T12:12:03.095Z,10.08
2022-08-16T12:12:57.869Z,10.07
2022-08-16T12:13:57.480Z,10.05
2022-08-16T12:14:59.413Z,10.04
2022-08-16T12:15:57.496Z,10.03
2022-08-16T12:16:59.699Z,10.02
2022-08-16T12:17:57.527Z,10.00
2022-08-16T12:18:58.316Z,9.99
2022-08-16T12:25:59.638Z,9.92
2022-08-16T12:27:57.487Z,9.90
2022-08-16T12:28:57.447Z,9.89
2022-08-16T12:29:58.582Z,9.88
2022-08-16T12:30:57.450Z,9.87
2022-08-16T12:32:00.685Z,9.86
2022-08-16T12:32:59.277Z,9.85
2022-08-16T12:34:57.530Z,9.84
2022-08-16T12:35:57.446Z,9.83
2022-08-16T12:36:57.636Z,9.82
2022-08-16T12:38:57.552Z,9.81
2022-08-16T12:39:58.202Z,9.80
2022-08-16T12:40:58.506Z,9.79
2022-08-16T12:43:00.886Z,9.78
2022-08-16T12:44:00.965Z,9.77
2022-08-16T12:45:59.454Z,9.75
2022-08-16T12:48:58.555Z,9.74
2022-08-16T12:49:57.442Z,9.73
2022-08-16T12:50:58.086Z,9.72
2022-08-16T12:52:57.842Z,9.70
2022-08-16T12:53:58.312Z,9.69
2022-08-16T12:54:57.865Z,9.68
2022-08-16T12:55:57.465Z,9.67
2022-08-16T12:56:57.846Z,9.66
2022-08-16T12:58:00.476Z,9.65
2022-08-16T12:58:58.261Z,9.63
2022-08-16T12:59:57.450Z,9.61
2022-08-16T13:01:59.532Z,9.60
2022-08-16T13:02:58.209Z,9.59
2022-08-16T13:04:12.132Z,9.58
2022-08-16T13:04:57.407Z,9.57
2022-08-16T13:05:57.918Z,9.56
2022-08-16T13:06:59.966Z,9.54
2022-08-16T13:09:02.439Z,9.52
2022-08-16T13:09:58.531Z,9.51
2022-08-16T13:10:57.439Z,9.50
2022-08-16T13:12:04.569Z,9.49
2022-08-16T13:12:57.453Z,9.48
2022-08-16T13:13:58.485Z,9.47
2022-08-16T13:16:03.602Z,9.46
2022-08-16T13:16:57.384Z,9.45
2022-08-16T13:18:57.500Z,9.44
2022-08-16T13:20:08.718Z,9.43
2022-08-16T13:21:57.397Z,9.42
2022-08-16T13:23:03.921Z,9.41
2022-08-16T13:25:57.617Z,9.40
2022-08-16T13:26:57.510Z,9.39
2022-08-16T13:28:02.987Z,9.38
2022-08-16T13:31:00.148Z,9.37
2022-08-16T13:31:57.371Z,9.36
2022-08-16T13:33:58.703Z,9.35
2022-08-16T13:36:00.664Z,9.34
2022-08-16T13:39:57.625Z,9.33
2022-08-16T13:43:59.332Z,9.32
2022-08-16T13:46:04.226Z,9.31
2022-08-16T13:46:57.741Z,9.30
2022-08-16T13:48:58.011Z,9.29
2022-08-16T13:49:57.359Z,9.30
2022-08-16T13:51:59.186Z,9.29
2022-08-16T13:55:59.256Z,9.28
2022-08-16T13:56:57.397Z,9.29
2022-08-16T14:03:57.585Z,9.28
2022-08-16T14:05:57.340Z,9.27
2022-08-16T14:06:59.116Z,9.28
2022-08-16T14:07:57.338Z,9.27
2022-08-16T14:09:06.292Z,9.28
2022-08-16T14:09:57.481Z,9.29
2022-08-16T14:13:59.288Z,9.30
2022-08-16T14:14:58.321Z,9.29
2022-08-16T14:15:57.396Z,9.30
2022-08-16T14:18:57.685Z,9.29
2022-08-16T14:19:59.855Z,9.27
2022-08-16T14:22:14.069Z,9.26
2022-08-16T14:22:57.587Z,9.25
2022-08-16T14:23:57.757Z,9.24
2022-08-16T14:24:58.737Z,9.23
2022-08-16T14:25:57.815Z,9.22
2022-08-16T14:27:57.385Z,9.21
2022-08-16T14:29:59.544Z,9.22
2022-08-16T14:30:57.549Z,9.21
2022-08-16T14:31:59.172Z,9.22
2022-08-16T14:34:59.087Z,9.23
2022-08-16T14:44:57.433Z,9.22
2022-08-16T14:49:57.310Z,9.23
2022-08-16T14:50:57.901Z,9.22
2022-08-16T14:53:00.887Z,9.21
2022-08-16T14:55:57.684Z,9.20
2022-08-16T14:56:58.138Z,9.19
2022-08-16T14:57:58.139Z,9.17
2022-08-16T15:00:00.802Z,9.16
2022-08-16T15:00:58.454Z,9.14
2022-08-16T15:02:00.489Z,9.12
2022-08-16T15:03:03.079Z,9.11
2022-08-16T15:03:58.116Z,9.09
2022-08-16T15:04:58.933Z,9.08
2022-08-16T15:05:57.346Z,9.06
2022-08-16T15:06:58.611Z,9.05
2022-08-16T15:07:57.472Z,9.04
2022-08-16T15:10:01.013Z,9.05
2022-08-16T15:10:57.332Z,9.06
2022-08-16T15:11:57.281Z,9.07
2022-08-16T15:12:58.560Z,9.08
2022-08-16T15:13:57.769Z,9.10
2022-08-16T15:20:58.018Z,9.11
2022-08-16T15:21:57.845Z,9.10
2022-08-16T15:23:57.840Z,9.09
2022-08-16T15:26:02.558Z,9.08
2022-08-16T15:26:57.845Z,9.07
2022-08-16T15:27:58.143Z,9.08
2022-08-16T15:33:02.186Z,9.09
2022-08-16T15:35:03.530Z,9.10
2022-08-16T15:35:58.583Z,9.09
2022-08-16T15:36:57.304Z,9.10
2022-08-16T15:42:02.127Z,9.11
2022-08-16T15:44:58.636Z,9.12
2022-08-16T15:46:06.807Z,9.13
2022-08-16T15:48:57.573Z,9.14
2022-08-16T15:50:59.954Z,9.15
2022-08-16T15:51:57.288Z,9.16
2022-08-16T15:54:29.264Z,9.18
2022-08-16T15:55:59.254Z,9.19
2022-08-16T15:57:00.215Z,9.20
2022-08-16T15:58:57.301Z,9.22
2022-08-16T16:00:57.601Z,9.23
2022-08-16T16:01:58.358Z,9.24
2022-08-16T16:03:09.186Z,9.25
2022-08-16T16:03:57.623Z,9.26
2022-08-16T16:05:59.960Z,9.28
2022-08-16T16:08:11.705Z,9.29
2022-08-16T16:09:58.796Z,9.30
2022-08-16T16:11:01.408Z,9.31
2022-08-16T16:11:58.458Z,9.32
2022-08-16T16:12:59.869Z,9.33
2022-08-16T16:13:57.641Z,9.34
2022-08-16T16:17:58.169Z,9.35
2022-08-16T16:18:57.251Z,9.36
2022-08-16T16:23:57.939Z,9.35
2022-08-16T16:24:57.253Z,9.33
2022-08-16T16:25:57.691Z,9.32
2022-08-16T16:26:57.355Z,9.30
2022-08-16T16:27:59.825Z,9.29
2022-08-16T16:29:07.902Z,9.28